Terminal Aerodrome Forecast
Issued by NWS

Home | Current Version | Previous Version | Text Only | Print | Product List | Glossary On
Versions: 1 2 3 4 5 6 7 8 9 10 11 12
000
FTUS46 KSGX 200546
TAFTRM
TAF
KTRM 200546Z 2006/2106 33005KT P6SM BKN080
     FM201600 12005KT 6SM -RA BR BKN035 OVC070
     FM202000 14015G25KT 5SM RA OVC025
     FM210400 32009KT P6SM -SHRA BKN040=

USA.gov is the U.S. government's official web portal to all federal, state and local government web resources and services.